Time;durP1;ratioP1;P1;durP2;ratioP2;P2;SDS_P1;SDS_P2;PMS_P1;PMS_P2;Temp;Humidity;BMP_temperature;BMP_pressure;BME280_temperature;BME280_humidity;BME280_pressure;Samples;Min_cycle;Max_cycle;Signal;HPM_P1;HPM_P2
2022/12/04 00:01:28;;;;;;;25.02;14.57;;;;;;;3.03;100.00;100319.41;5033816;28;20200;-71
2022/12/04 00:03:56;;;;;;;22.60;14.02;;;;;;;3.08;100.00;100317.59;5039412;28;20222;-74
2022/12/04 00:06:23;;;;;;;23.67;14.27;;;;;;;3.03;100.00;100317.66;5042133;28;20536;-74
2022/12/04 00:08:51;;;;;;;24.75;14.63;;;;;;;2.98;100.00;100311.50;5047832;28;20251;-72
2022/12/04 00:11:20;;;;;;;27.58;15.20;;;;;;;2.92;100.00;100308.97;5043452;22;20248;-77
2022/12/04 00:13:47;;;;;;;24.08;12.98;;;;;;;3.05;100.00;100314.94;5030449;28;20211;-77
2022/12/04 00:16:19;;;;;;;24.75;14.50;;;;;;;3.10;100.00;100310.47;5028899;28;20202;-76
2022/12/04 00:18:45;;;;;;;22.15;13.63;;;;;;;3.04;100.00;100311.41;5027708;28;20195;-76
2022/12/04 00:21:13;;;;;;;21.75;14.27;;;;;;;3.03;100.00;100325.66;5030287;28;20246;-75
2022/12/04 00:23:40;;;;;;;24.95;13.70;;;;;;;2.98;100.00;100335.44;5024713;28;20286;-75
2022/12/04 00:26:09;;;;;;;19.10;12.57;;;;;;;3.05;100.00;100334.50;5019838;28;20205;-75
2022/12/04 00:28:37;;;;;;;22.20;13.07;;;;;;;3.01;100.00;100334.53;5008550;28;20226;-75
2022/12/04 00:31:05;;;;;;;26.73;13.63;;;;;;;2.98;100.00;100337.25;5018820;28;20253;-75
2022/12/04 00:33:33;;;;;;;21.55;13.85;;;;;;;2.97;100.00;100347.00;5001892;28;20219;-76
2022/12/04 00:36:03;;;;;;;21.67;13.40;;;;;;;2.92;100.00;100335.56;4999839;28;20258;-75
2022/12/04 00:38:30;;;;;;;20.77;12.35;;;;;;;2.89;100.00;100336.50;5015188;28;20198;-75
2022/12/04 00:40:56;;;;;;;20.95;13.77;;;;;;;2.87;100.00;100340.97;5015419;28;20219;-74
2022/12/04 00:43:24;;;;;;;18.65;11.88;;;;;;;2.86;100.00;100325.00;5021239;28;20199;-75
2022/12/04 00:45:50;;;;;;;19.10;12.80;;;;;;;2.99;100.00;100336.38;5008550;28;20301;-75
2022/12/04 00:48:17;;;;;;;22.88;13.93;;;;;;;2.87;100.00;100326.75;5030322;28;20270;-73
2022/12/04 00:50:45;;;;;;;23.60;13.80;;;;;;;2.77;100.00;100330.47;5020634;28;20206;-75
2022/12/04 00:53:12;;;;;;;25.30;14.40;;;;;;;2.81;100.00;100332.19;5015808;28;20306;-75
2022/12/04 00:55:39;;;;;;;26.67;14.02;;;;;;;2.89;100.00;100335.59;5024856;28;20234;-76
2022/12/04 00:58:06;;;;;;;21.35;13.43;;;;;;;2.90;100.00;100345.34;5012987;28;20672;-74
2022/12/04 01:00:33;;;;;;;19.17;12.38;;;;;;;2.97;100.00;100338.16;5015390;28;20649;-75
2022/12/04 01:03:00;;;;;;;19.80;13.02;;;;;;;2.97;100.00;100335.50;5016947;28;20282;-75
2022/12/04 01:05:26;;;;;;;22.17;13.25;;;;;;;2.91;100.00;100333.78;5018938;28;20213;-75
2022/12/04 01:07:54;;;;;;;16.65;11.43;;;;;;;2.89;100.00;100331.19;5009301;28;20210;-75
2022/12/04 01:10:21;;;;;;;18.77;11.88;;;;;;;2.90;100.00;100324.06;5018710;28;20262;-76
2022/12/04 01:12:49;;;;;;;17.13;11.60;;;;;;;2.82;100.00;100317.97;5016326;28;20572;-74
2022/12/04 01:15:16;;;;;;;18.77;12.68;;;;;;;2.79;100.00;100302.94;5030495;28;20198;-75
2022/12/04 01:17:44;;;;;;;16.15;11.90;;;;;;;2.85;100.00;100296.63;5008528;28;20302;-75
2022/12/04 01:20:12;;;;;;;20.10;12.50;;;;;;;2.84;100.00;100301.09;5003996;28;20299;-75
2022/12/04 01:22:38;;;;;;;19.70;12.30;;;;;;;2.87;100.00;100301.06;5007824;28;20622;-74
2022/12/04 01:25:08;;;;;;;15.77;11.95;;;;;;;2.95;100.00;100303.59;5012969;28;20672;-76
2022/12/04 01:27:35;;;;;;;18.25;12.90;;;;;;;2.95;100.00;100303.59;4996350;28;20681;-74
2022/12/04 01:30:01;;;;;;;20.13;13.05;;;;;;;2.98;100.00;100300.00;5001045;28;20238;-75
2022/12/04 01:32:28;;;;;;;19.90;12.52;;;;;;;2.99;100.00;100301.78;5010669;28;20195;-75
2022/12/04 01:34:55;;;;;;;20.45;12.50;;;;;;;2.93;100.00;100292.09;4996097;28;20205;-74
2022/12/04 01:37:22;;;;;;;21.25;13.23;;;;;;;2.90;100.00;100298.34;5004861;28;20301;-75
2022/12/04 01:39:48;;;;;;;20.40;12.98;;;;;;;2.98;100.00;100297.34;5022912;28;20303;-75
2022/12/04 01:42:16;;;;;;;18.02;13.00;;;;;;;3.02;100.00;100286.63;5008361;28;20583;-75
2022/12/04 01:44:45;;;;;;;21.30;13.52;;;;;;;2.96;100.00;100286.72;5021796;28;20564;-74
2022/12/04 01:47:11;;;;;;;21.60;13.60;;;;;;;2.96;100.00;100289.38;5007543;28;20294;-75
2022/12/04 01:49:41;;;;;;;20.67;13.02;;;;;;;3.02;100.00;100297.25;5020302;28;20222;-76
2022/12/04 01:52:12;;;;;;;24.05;13.73;;;;;;;3.01;100.00;100294.63;5020298;28;20633;-75
2022/12/04 01:54:44;;;;;;;21.25;13.07;;;;;;;2.96;100.00;100293.81;5010498;28;20364;-76
2022/12/04 01:57:16;;;;;;;22.25;12.38;;;;;;;3.00;100.00;100295.53;5012100;28;20262;-75
2022/12/04 01:59:47;;;;;;;20.90;13.07;;;;;;;3.01;100.00;100295.53;5015643;28;20707;-77
2022/12/04 02:02:17;;;;;;;22.70;12.68;;;;;;;2.98;100.00;100295.53;5009717;28;20282;-77
2022/12/04 02:04:44;;;;;;;24.02;14.60;;;;;;;2.93;100.00;100294.75;5000798;28;20673;-75
2022/12/04 02:07:13;;;;;;;21.00;13.07;;;;;;;2.96;100.00;100301.81;5017659;28;20205;-76
2022/12/04 02:09:42;;;;;;;23.45;13.40;;;;;;;2.91;100.00;100305.41;5012535;28;20921;-75
2022/12/04 02:12:20;;;;;;;23.48;13.43;;;;;;;2.93;100.00;100305.38;5009018;28;20210;-75
2022/12/04 02:14:58;;;;;;;21.65;13.07;;;;;;;2.92;100.00;100303.66;5010526;28;20206;-75
2022/12/04 02:17:28;;;;;;;20.20;11.40;;;;;;;2.87;100.00;100319.69;5008632;28;20194;-74
2022/12/04 02:20:08;;;;;;;20.10;12.75;;;;;;;2.86;100.00;100323.22;5012723;28;20218;-75
2022/12/04 02:22:52;;;;;;;20.33;12.68;;;;;;;2.89;100.00;100314.31;5006752;28;20634;-75
2022/12/04 02:25:29;;;;;;;23.80;13.18;;;;;;;2.91;100.00;100317.84;5017654;28;20602;-74
2022/12/04 02:28:04;;;;;;;24.05;13.82;;;;;;;2.91;100.00;100317.84;5020139;28;20266;-76
2022/12/04 02:30:34;;;;;;;20.35;12.48;;;;;;;2.96;100.00;100310.66;5001473;28;20589;-75
2022/12/04 02:33:07;;;;;;;24.60;13.77;;;;;;;2.97;100.00;100312.44;5009966;28;20226;-75
2022/12/04 02:35:38;;;;;;;19.15;11.55;;;;;;;2.98;100.00;100316.84;5004812;28;20290;-76
2022/12/04 02:38:11;;;;;;;22.20;13.80;;;;;;;2.96;100.00;100321.28;5020034;28;20683;-75
2022/12/04 02:40:44;;;;;;;24.23;14.15;;;;;;;2.99;100.00;100326.59;5004433;28;20218;-75
2022/12/04 02:43:15;;;;;;;20.45;13.25;;;;;;;2.99;100.00;100325.72;5015086;28;20598;-75
2022/12/04 02:45:46;;;;;;;20.13;13.15;;;;;;;2.97;100.00;100315.09;5026048;28;20197;-74
2022/12/04 02:48:16;;;;;;;18.40;12.05;;;;;;;3.00;100.00;100314.16;5029802;28;20225;-75
2022/12/04 02:50:45;;;;;;;22.55;12.93;;;;;;;2.96;100.00;100313.31;5007425;28;20319;-76
2022/12/04 02:53:16;;;;;;;23.35;13.57;;;;;;;3.03;100.00;100322.06;5017466;28;20219;-74
2022/12/04 02:55:47;;;;;;;21.23;12.45;;;;;;;2.96;100.00;100315.09;5019559;28;20218;-76
2022/12/04 02:58:18;;;;;;;22.00;12.90;;;;;;;2.88;100.00;100309.91;5015901;28;20592;-76
2022/12/04 03:00:47;;;;;;;21.08;12.82;;;;;;;2.88;100.00;100307.25;5022996;28;20314;-76
2022/12/04 03:03:19;;;;;;;24.33;14.15;;;;;;;2.93;100.00;100308.06;5013444;28;20203;-76
2022/12/04 03:05:54;;;;;;;20.80;12.05;;;;;;;2.95;100.00;100308.91;5012111;28;20578;-76
2022/12/04 03:08:25;;;;;;;23.13;13.50;;;;;;;2.91;100.00;100305.41;5020046;28;20830;-76
2022/12/04 03:10:56;;;;;;;24.23;13.57;;;;;;;2.84;100.00;100302.88;5028299;28;20221;-76
2022/12/04 03:13:29;;;;;;;19.50;12.43;;;;;;;2.84;100.00;100302.88;5026999;28;20218;-75
2022/12/04 03:16:03;;;;;;;20.10;12.25;;;;;;;2.82;100.00;100296.69;5028516;28;20196;-75
2022/12/04 03:18:36;;;;;;;24.38;14.00;;;;;;;2.84;100.00;100301.09;5023921;28;20660;-75
2022/12/04 03:21:06;;;;;;;21.77;13.65;;;;;;;2.83;100.00;100298.47;5020024;28;20733;-76
2022/12/04 03:23:37;;;;;;;21.85;12.88;;;;;;;2.86;100.00;100296.63;5014611;28;20195;-76
2022/12/04 03:26:10;;;;;;;22.33;12.80;;;;;;;2.91;100.00;100302.75;5016609;28;20558;-75
2022/12/04 03:28:46;;;;;;;22.05;12.82;;;;;;;2.92;100.00;100304.53;5015295;28;20201;-75
2022/12/04 03:31:15;;;;;;;21.38;12.48;;;;;;;2.89;100.00;100301.00;5007449;28;20229;-75
2022/12/04 03:33:45;;;;;;;22.92;13.40;;;;;;;2.92;100.00;100299.19;5021612;28;20228;-76
2022/12/04 03:36:19;;;;;;;20.88;13.10;;;;;;;2.94;100.00;100296.53;5014646;28;20721;-74
2022/12/04 03:38:51;;;;;;;24.33;14.45;;;;;;;2.89;100.00;100299.25;5023478;28;20273;-75
2022/12/04 03:41:25;;;;;;;22.52;13.57;;;;;;;2.95;100.00;100292.06;5034318;28;20266;-74
2022/12/04 03:43:59;;;;;;;22.20;13.20;;;;;;;2.97;100.00;100304.44;5036471;28;20186;-75
2022/12/04 03:46:30;;;;;;;21.30;12.95;;;;;;;3.01;100.00;100303.50;5042922;28;20194;-73
2022/12/04 03:49:07;;;;;;;20.52;12.40;;;;;;;3.03;100.00;100296.38;5019381;28;20224;-75
2022/12/04 03:51:39;;;;;;;20.63;13.65;;;;;;;3.01;100.00;100287.53;5033056;28;20220;-75
2022/12/04 03:54:11;;;;;;;20.50;12.30;;;;;;;2.99;100.00;100284.03;5025874;28;20230;-75
2022/12/04 03:56:43;;;;;;;22.75;13.00;;;;;;;3.01;100.00;100289.28;5018639;28;20321;-75
2022/12/04 03:59:15;;;;;;;19.50;11.95;;;;;;;2.95;100.00;100284.97;5019313;28;20266;-74
2022/12/04 04:01:45;;;;;;;22.80;14.02;;;;;;;2.98;100.00;100278.72;5026126;28;20238;-75
2022/12/04 04:04:23;;;;;;;19.17;12.15;;;;;;;2.87;100.00;100274.47;5007944;28;20889;-75
2022/12/04 04:06:56;;;;;;;24.17;13.25;;;;;;;2.87;100.00;100287.75;5017172;28;20202;-76
2022/12/04 04:09:26;;;;;;;22.20;13.50;;;;;;;2.86;100.00;100271.81;5025312;28;20281;-74
2022/12/04 04:12:00;;;;;;;24.27;13.90;;;;;;;2.88;100.00;100280.66;5020128;28;20195;-75
2022/12/04 04:25:47;;;;;;;22.58;13.35;;;;;;;2.92;100.00;100259.28;5027252;28;20201;-76
2022/12/04 04:28:29;;;;;;;25.23;13.90;;;;;;;2.89;100.00;100267.34;5020147;28;20202;-75
2022/12/04 04:31:05;;;;;;;26.45;14.20;;;;;;;2.95;100.00;100271.66;5025629;28;20227;-75
2022/12/04 04:33:36;;;;;;;24.58;12.55;;;;;;;2.99;100.00;100278.69;5016872;28;20638;-74
2022/12/04 04:36:09;;;;;;;22.50;14.75;;;;;;;2.91;100.00;100275.28;5010879;28;20306;-75
2022/12/04 04:38:43;;;;;;;24.60;13.85;;;;;;;2.91;100.00;100270.81;5016739;28;20199;-76
2022/12/04 04:41:15;;;;;;;19.48;12.85;;;;;;;2.89;100.00;100255.78;5015503;28;20218;-74
2022/12/04 04:43:50;;;;;;;20.40;12.88;;;;;;;2.93;100.00;100273.47;5007191;28;20196;-75
2022/12/04 04:46:23;;;;;;;20.67;12.35;;;;;;;2.98;100.00;100282.25;5012703;28;20201;-76
2022/12/04 04:48:54;;;;;;;21.83;13.50;;;;;;;2.93;100.00;100279.66;5024184;28;20261;-78
2022/12/04 04:51:21;;;;;;;23.55;13.27;;;;;;;2.86;100.00;100280.66;5016483;28;20258;-76
2022/12/04 04:53:51;;;;;;;21.75;13.60;;;;;;;2.89;100.00;100288.63;5016689;28;20221;-76
2022/12/04 04:56:18;;;;;;;20.73;12.27;;;;;;;2.88;100.00;100286.84;5016348;28;20214;-77
2022/12/04 04:58:45;;;;;;;23.67;14.30;;;;;;;2.91;100.00;100281.47;5020658;28;20735;-76
2022/12/04 05:01:14;;;;;;;25.10;14.18;;;;;;;2.88;100.00;100285.97;5017407;28;20227;-75
2022/12/04 05:03:42;;;;;;;24.05;13.45;;;;;;;2.80;100.00;100279.88;5015836;28;20286;-75
2022/12/04 05:06:09;;;;;;;20.23;12.15;;;;;;;2.82;100.00;100284.28;5020831;28;20560;-76
2022/12/04 05:08:36;;;;;;;25.77;14.07;;;;;;;2.79;100.00;100286.13;5013550;28;20294;-76
2022/12/04 05:11:03;;;;;;;19.67;12.90;;;;;;;2.77;100.00;100286.13;5018188;28;20231;-76
2022/12/04 05:13:32;;;;;;;22.63;14.07;;;;;;;2.78;100.00;100292.31;5006681;28;20629;-76
2022/12/04 05:16:01;;;;;;;24.83;13.98;;;;;;;2.81;100.00;100284.31;5021438;28;20273;-75
2022/12/04 05:18:29;;;;;;;25.92;14.23;;;;;;;2.81;100.00;100279.00;5017899;28;20215;-76
2022/12/04 05:20:56;;;;;;;21.25;12.27;;;;;;;2.78;100.00;100273.69;5013859;28;20301;-76
2022/12/04 05:23:23;;;;;;;22.27;12.98;;;;;;;2.78;100.00;100261.31;5012814;28;20210;-75
2022/12/04 05:25:50;;;;;;;28.27;13.38;;;;;;;2.82;100.00;100265.66;5021095;28;20203;-75
2022/12/04 05:28:17;;;;;;;24.40;13.00;;;;;;;2.74;100.00;100262.25;5014124;28;20237;-75
2022/12/04 05:30:43;;;;;;;21.88;13.20;;;;;;;2.70;100.00;100264.06;5023209;28;20336;-76
2022/12/04 05:33:10;;;;;;;23.42;13.38;;;;;;;2.62;100.00;100268.66;5009855;28;20207;-76
2022/12/04 05:35:37;;;;;;;19.88;12.35;;;;;;;2.65;100.00;100273.03;5020870;28;20236;-75
2022/12/04 05:38:05;;;;;;;21.60;12.77;;;;;;;2.64;100.00;100272.13;5005342;28;20203;-76
2022/12/04 05:40:31;;;;;;;24.13;14.68;;;;;;;2.66;100.00;100270.34;5016461;28;20237;-74
2022/12/04 05:42:58;;;;;;;26.02;13.93;;;;;;;2.57;100.00;100273.13;5006901;28;20218;-75
2022/12/04 05:45:24;;;;;;;24.75;13.73;;;;;;;2.57;100.00;100280.22;5015581;28;20210;-75
2022/12/04 05:47:51;;;;;;;23.58;13.32;;;;;;;2.60;100.00;100274.84;5018874;28;20201;-75
2022/12/04 05:50:18;;;;;;;23.17;13.25;;;;;;;2.60;100.00;100283.75;5018121;28;20223;-75
2022/12/04 05:52:44;;;;;;;22.52;12.65;;;;;;;2.59;100.00;100275.78;5018757;28;20198;-75
2022/12/04 05:55:12;;;;;;;21.92;12.80;;;;;;;2.54;100.00;100278.50;5027556;28;20219;-77
2022/12/04 05:57:38;;;;;;;22.13;13.90;;;;;;;2.53;100.00;100281.16;5025309;28;20199;-76
2022/12/04 06:00:06;;;;;;;19.58;11.23;;;;;;;2.52;100.00;100293.59;5024435;28;20241;-75
2022/12/04 06:02:34;;;;;;;19.42;12.48;;;;;;;2.52;100.00;100288.28;5010195;28;20767;-75
2022/12/04 06:05:00;;;;;;;19.98;11.50;;;;;;;2.56;100.00;100283.81;5015373;28;20198;-76
2022/12/04 06:07:27;;;;;;;23.50;13.10;;;;;;;2.47;100.00;100291.00;5019237;28;20234;-73
2022/12/04 06:09:55;;;;;;;22.45;12.98;;;;;;;2.54;100.00;100296.25;5030195;22;20227;-72
2022/12/04 06:12:23;;;;;;;23.20;13.20;;;;;;;2.48;100.00;100297.19;5015261;28;20213;-72
2022/12/04 06:14:49;;;;;;;23.88;13.00;;;;;;;2.41;100.00;100295.53;5014551;28;20222;-74
2022/12/04 06:17:16;;;;;;;21.98;13.18;;;;;;;2.52;100.00;100293.59;5014205;28;20213;-72
2022/12/04 06:19:42;;;;;;;26.15;13.57;;;;;;;2.41;100.00;100299.06;5007517;28;20432;-74
2022/12/04 06:22:09;;;;;;;26.98;14.48;;;;;;;2.40;100.00;100304.41;5014202;28;20653;-72
2022/12/04 06:24:36;;;;;;;24.70;13.05;;;;;;;2.31;100.00;100294.78;5019586;28;20286;-73
2022/12/04 06:27:02;;;;;;;21.42;13.07;;;;;;;2.35;100.00;100303.56;5030055;28;20637;-73
2022/12/04 06:29:30;;;;;;;22.23;13.30;;;;;;;2.35;100.00;100301.78;5014005;28;20210;-73
2022/12/04 06:31:57;;;;;;;22.83;12.85;;;;;;;2.39;100.00;100298.19;5026002;28;20225;-73
2022/12/04 06:34:23;;;;;;;23.25;13.25;;;;;;;2.40;100.00;100293.78;5020238;28;20234;-73
2022/12/04 06:36:50;;;;;;;22.85;13.00;;;;;;;2.38;100.00;100293.78;5025900;28;20202;-73
2022/12/04 06:39:16;;;;;;;19.02;12.27;;;;;;;2.44;100.00;100299.03;5025346;28;20206;-72
2022/12/04 06:41:43;;;;;;;20.60;12.63;;;;;;;2.44;100.00;100303.44;5024853;28;20218;-73
2022/12/04 06:44:09;;;;;;;21.73;12.70;;;;;;;2.42;100.00;100290.19;5007988;28;20283;-74
2022/12/04 06:46:37;;;;;;;19.90;12.90;;;;;;;2.37;100.00;100293.78;5013421;28;20206;-73
2022/12/04 06:49:04;;;;;;;22.75;12.63;;;;;;;2.38;100.00;100292.91;5021848;28;20812;-74
2022/12/04 06:51:33;;;;;;;25.73;14.63;;;;;;;2.42;100.00;100283.97;5021506;28;20238;-76
2022/12/04 06:54:00;;;;;;;19.77;12.70;;;;;;;2.41;100.00;100285.75;5016201;28;20205;-77
2022/12/04 06:56:29;;;;;;;19.02;12.00;;;;;;;2.41;100.00;100285.75;5025527;28;20201;-76
2022/12/04 06:58:58;;;;;;;20.08;12.25;;;;;;;2.49;100.00;100288.34;5025057;28;20218;-73
2022/12/04 07:01:26;;;;;;;24.88;13.95;;;;;;;2.47;100.00;100277.72;5016305;28;20229;-75
2022/12/04 07:03:56;;;;;;;21.58;12.95;;;;;;;2.39;100.00;100287.56;5042648;28;20204;-73
2022/12/04 07:06:24;;;;;;;22.10;12.43;;;;;;;2.39;100.00;100284.91;5026612;28;20298;-74
2022/12/04 07:08:53;;;;;;;19.67;12.48;;;;;;;2.37;100.00;100289.34;5009726;28;20195;-74
2022/12/04 07:11:20;;;;;;;24.33;12.70;;;;;;;2.41;100.00;100288.41;5023818;28;20233;-74
2022/12/04 07:13:47;;;;;;;20.80;12.00;;;;;;;2.47;100.00;100284.81;5024307;28;20204;-75
2022/12/04 07:16:16;;;;;;;19.63;12.40;;;;;;;2.48;100.00;100279.44;5013244;28;20219;-73
2022/12/04 07:18:43;;;;;;;19.00;12.05;;;;;;;2.54;100.00;100280.28;5020335;28;20199;-74
2022/12/04 07:21:14;;;;;;;22.95;13.07;;;;;;;2.48;100.00;100281.25;5019731;28;20219;-74
2022/12/04 07:23:40;;;;;;;20.13;12.40;;;;;;;2.44;100.00;100275.09;5024230;28;20190;-74
2022/12/04 07:26:08;;;;;;;22.95;13.40;;;;;;;2.48;100.00;100289.22;5008018;28;20574;-74
2022/12/04 07:28:35;;;;;;;16.42;11.07;;;;;;;2.43;100.00;100283.97;5016276;28;20197;-73
2022/12/04 07:31:04;;;;;;;20.95;12.90;;;;;;;2.41;100.00;100276.91;5038582;28;20301;-74
2022/12/04 07:33:31;;;;;;;20.33;13.38;;;;;;;2.37;100.00;100278.72;5027417;28;20198;-75
2022/12/04 07:35:58;;;;;;;17.70;11.43;;;;;;;2.35;100.00;100274.34;5019959;28;20222;-73
2022/12/04 07:38:27;;;;;;;17.67;11.85;;;;;;;2.42;100.00;100276.91;5020638;28;20302;-74
2022/12/04 07:40:55;;;;;;;19.42;13.23;;;;;;;2.47;100.00;100279.50;5025091;28;20288;-74
2022/12/04 07:43:22;;;;;;;21.13;12.55;;;;;;;2.39;100.00;100276.94;5027114;28;20206;-73
2022/12/04 07:45:54;;;;;;;18.60;12.57;;;;;;;2.39;100.00;100278.72;5020214;28;20289;-73
2022/12/04 07:48:21;;;;;;;22.60;12.70;;;;;;;2.48;100.00;100273.25;5013912;28;20195;-73
2022/12/04 07:50:47;;;;;;;23.27;12.88;;;;;;;2.49;100.00;100281.22;5024192;28;20248;-73
2022/12/04 07:53:14;;;;;;;20.42;11.68;;;;;;;2.44;100.00;100280.44;5015851;28;20275;-74
2022/12/04 07:55:42;;;;;;;18.65;12.50;;;;;;;2.40;100.00;100284.00;5017565;28;20224;-74
2022/12/04 07:58:09;;;;;;;19.27;11.85;;;;;;;2.47;100.00;100279.50;5012389;28;20199;-75
2022/12/04 08:00:35;;;;;;;20.23;12.07;;;;;;;2.42;100.00;100287.53;5009448;28;20616;-75
2022/12/04 08:03:02;;;;;;;22.15;13.15;;;;;;;2.47;100.00;100296.31;5010367;28;20295;-72
2022/12/04 08:05:28;;;;;;;22.75;12.93;;;;;;;2.52;100.00;100293.59;5007381;28;20687;-75
2022/12/04 08:07:55;;;;;;;20.73;13.10;;;;;;;2.52;100.00;100304.22;5020919;28;20202;-73
2022/12/04 08:10:21;;;;;;;22.85;13.23;;;;;;;2.47;100.00;100306.09;5008765;28;20234;-73
2022/12/04 08:12:49;;;;;;;23.33;12.77;;;;;;;2.54;100.00;100305.09;5006813;28;20195;-73
2022/12/04 08:15:16;;;;;;;24.15;12.95;;;;;;;2.59;100.00;100307.69;5010684;28;20219;-73
2022/12/04 08:17:42;;;;;;;22.05;12.35;;;;;;;2.49;100.00;100313.13;5011698;28;20209;-74
2022/12/04 08:20:09;;;;;;;20.38;12.45;;;;;;;2.54;100.00;100312.19;5014356;28;20223;-75
2022/12/04 08:22:36;;;;;;;21.83;13.20;;;;;;;2.60;100.00;100315.66;5015950;28;20217;-72
2022/12/04 08:25:03;;;;;;;27.02;15.70;;;;;;;2.52;100.00;100317.53;5011242;28;20199;-72
2022/12/04 08:27:29;;;;;;;21.73;13.32;;;;;;;2.48;100.00;100313.13;5012324;28;20212;-72
2022/12/04 08:29:57;;;;;;;26.80;14.40;;;;;;;2.52;100.00;100314.88;5007537;28;20206;-71
2022/12/04 08:32:23;;;;;;;21.05;13.13;;;;;;;2.56;100.00;100311.25;5013042;28;20251;-71
2022/12/04 08:34:50;;;;;;;20.83;13.85;;;;;;;2.60;100.00;100306.75;5017850;28;20222;-73
2022/12/04 08:37:17;;;;;;;21.45;12.40;;;;;;;2.60;100.00;100310.34;5008655;28;20200;-74
2022/12/04 08:39:43;;;;;;;24.05;13.07;;;;;;;2.62;100.00;100311.19;5005870;28;20205;-73
2022/12/04 08:42:10;;;;;;;19.60;12.65;;;;;;;2.62;100.00;100305.88;5010859;28;20570;-74
2022/12/04 08:44:36;;;;;;;21.67;12.70;;;;;;;2.56;100.00;100299.75;5008687;28;20210;-74
2022/12/04 08:47:04;;;;;;;23.73;14.23;;;;;;;2.61;100.00;100298.78;5011831;28;20199;-76
2022/12/04 08:49:31;;;;;;;20.45;12.32;;;;;;;2.66;100.00;100294.25;5009032;28;20199;-73
2022/12/04 08:51:57;;;;;;;21.80;12.73;;;;;;;2.75;100.00;100292.38;5010652;28;20218;-74
2022/12/04 08:54:24;;;;;;;24.60;14.05;;;;;;;2.67;100.00;100296.03;5015455;28;20249;-73
2022/12/04 08:56:50;;;;;;;23.92;14.05;;;;;;;2.65;100.00;100292.53;5009135;28;20207;-75
2022/12/04 08:59:17;;;;;;;22.63;13.98;;;;;;;2.71;100.00;100284.47;5010062;28;20293;-71
2022/12/04 09:01:43;;;;;;;23.73;13.65;;;;;;;2.68;100.00;100287.16;5034933;28;20683;-72
2022/12/04 09:04:11;;;;;;;23.50;13.27;;;;;;;2.65;100.00;100276.56;5017513;28;20195;-73
2022/12/04 09:06:38;;;;;;;36.10;15.25;;;;;;;2.74;100.00;100279.97;5014036;28;20191;-68
2022/12/04 09:09:04;;;;;;;33.55;17.73;;;;;;;3.00;100.00;100279.56;5002891;28;20198;-70
2022/12/04 09:11:31;;;;;;;44.47;28.65;;;;;;;3.13;100.00;100275.81;5013695;28;20237;-70
2022/12/04 09:13:58;;;;;;;27.88;16.27;;;;;;;3.11;100.00;100275.81;5012787;28;20199;-73
2022/12/04 09:16:26;;;;;;;30.48;14.52;;;;;;;3.01;100.00;100283.97;5014514;28;20229;-70
2022/12/04 09:18:53;;;;;;;23.23;14.25;;;;;;;2.94;100.00;100283.22;4995676;28;20199;-72
2022/12/04 09:21:23;;;;;;;25.75;14.25;;;;;;;2.97;100.00;100291.16;5003351;28;20224;-73
2022/12/04 09:23:50;;;;;;;26.50;15.80;;;;;;;2.99;100.00;100291.13;5012883;28;20711;-72
2022/12/04 09:26:20;;;;;;;27.10;15.43;;;;;;;3.03;100.00;100288.41;5004424;28;20204;-71
2022/12/04 09:28:47;;;;;;;25.23;15.23;;;;;;;3.06;100.00;100284.81;5005284;28;20536;-72
2022/12/04 09:31:14;;;;;;;26.95;14.55;;;;;;;2.98;100.00;100290.22;5002287;28;20599;-72
2022/12/04 09:33:40;;;;;;;31.60;15.60;;;;;;;3.03;100.00;100285.72;5008086;28;20607;-71
2022/12/04 09:36:07;;;;;;;26.17;15.85;;;;;;;3.02;100.00;100286.63;5011608;28;20219;-72
2022/12/04 09:38:35;;;;;;;33.17;20.90;;;;;;;3.16;100.00;100281.06;4995165;28;20681;-74
2022/12/04 09:41:08;;;;;;;42.38;24.58;;;;;;;3.38;100.00;100281.56;4996540;28;20250;-73
2022/12/04 09:43:43;;;;;;;39.47;20.65;;;;;;;3.48;100.00;100288.50;5008478;28;20258;-76
2022/12/04 09:46:15;;;;;;;30.45;18.13;;;;;;;3.40;100.00;100287.75;4999858;28;20547;-73
2022/12/04 09:48:44;;;;;;;33.70;16.10;;;;;;;3.48;100.00;100277.84;4995777;28;20203;-74
2022/12/04 09:51:17;;;;;;;29.83;15.23;;;;;;;3.42;100.00;100275.31;5015342;28;20585;-75
2022/12/04 09:53:48;;;;;;;28.10;14.90;;;;;;;3.36;100.00;100280.72;5013345;28;20194;-73
2022/12/04 09:56:19;;;;;;;24.38;15.50;;;;;;;3.37;100.00;100282.50;5004920;28;20711;-72
2022/12/04 09:58:49;;;;;;;27.60;15.63;;;;;;;3.42;100.00;100283.28;5002039;28;20214;-74
2022/12/04 10:01:22;;;;;;;28.83;15.07;;;;;;;3.44;100.00;100285.94;5004226;28;20227;-74
2022/12/04 10:03:49;;;;;;;24.80;14.43;;;;;;;3.42;100.00;100267.31;5020069;28;20555;-74
2022/12/04 10:06:21;;;;;;;29.05;15.55;;;;;;;3.40;100.00;100279.78;5020133;28;20222;-73
2022/12/04 10:08:58;;;;;;;28.67;15.95;;;;;;;3.49;100.00;100274.28;5019811;28;20208;-74
2022/12/04 10:11:34;;;;;;;26.50;15.80;;;;;;;3.53;100.00;100281.31;5011524;28;20517;-74
2022/12/04 10:14:09;;;;;;;30.17;15.60;;;;;;;3.57;100.00;100279.44;5002406;28;20199;-73
2022/12/04 10:16:48;;;;;;;28.13;15.55;;;;;;;3.45;100.00;100280.56;5012267;28;20216;-72
2022/12/04 10:19:21;;;;;;;27.77;15.10;;;;;;;3.41;100.00;100278.84;5019928;28;20668;-73
2022/12/04 10:21:56;;;;;;;25.90;15.15;;;;;;;3.43;100.00;100279.69;5024637;28;20691;-74
2022/12/04 10:24:33;;;;;;;29.95;16.35;;;;;;;3.45;100.00;100267.25;5026787;28;20182;-72
2022/12/04 10:27:04;;;;;;;29.23;15.63;;;;;;;3.52;100.00;100265.34;5002035;28;20203;-73
2022/12/04 10:29:33;;;;;;;26.55;15.00;;;;;;;3.53;100.00;100257.34;5004808;28;20565;-72
2022/12/04 10:32:13;;;;;;;27.67;14.85;;;;;;;3.53;100.00;100262.66;5013644;28;20239;-72
2022/12/04 10:34:40;;;;;;;27.30;15.52;;;;;;;3.53;100.00;100254.69;5021152;28;20677;-73
2022/12/04 10:37:12;;;;;;;26.83;15.63;;;;;;;3.51;100.00;100240.50;5021558;28;20305;-72
2022/12/04 10:39:45;;;;;;;29.13;16.52;;;;;;;3.66;100.00;100243.78;5011385;28;20286;-74
2022/12/04 10:42:22;;;;;;;27.25;15.75;;;;;;;3.68;100.00;100247.28;5013465;28;20210;-74
2022/12/04 10:44:49;;;;;;;27.65;14.70;;;;;;;3.63;100.00;100243.84;5010517;28;20548;-74
2022/12/04 10:47:15;;;;;;;26.08;14.60;;;;;;;3.64;100.00;100243.81;5010730;28;20192;-73
2022/12/04 10:49:42;;;;;;;27.02;14.30;;;;;;;3.66;100.00;100249.97;5019152;28;20209;-74
2022/12/04 10:52:10;;;;;;;24.42;14.02;;;;;;;3.66;100.00;100235.78;5020836;28;20568;-74
2022/12/04 10:54:43;;;;;;;27.83;13.98;;;;;;;3.67;100.00;100235.78;5025483;28;20203;-75
2022/12/04 10:57:13;;;;;;;26.55;15.77;;;;;;;3.71;100.00;100228.59;5026779;28;20203;-74
2022/12/04 10:59:48;;;;;;;25.95;14.13;;;;;;;3.81;100.00;100221.28;5026543;28;20723;-74
2022/12/04 11:02:19;;;;;;;30.58;13.90;;;;;;;3.81;100.00;100222.16;5014170;28;20644;-75
2022/12/04 11:04:53;;;;;;;26.50;14.82;;;;;;;3.75;100.00;100223.19;5016645;28;20207;-75
2022/12/04 11:07:23;;;;;;;27.08;14.93;;;;;;;3.62;100.00;100204.78;5012761;28;20201;-72
2022/12/04 11:09:56;;;;;;;25.83;14.95;;;;;;;3.71;100.00;100204.63;5011625;28;20191;-73
2022/12/04 11:12:24;;;;;;;23.85;14.80;;;;;;;3.73;100.00;100209.03;5017584;28;20203;-72
2022/12/04 11:15:01;;;;;;;25.98;14.55;;;;;;;3.75;100.00;100200.97;5015857;28;20632;-74
2022/12/04 11:17:28;;;;;;;27.85;14.75;;;;;;;3.78;100.00;100197.38;5007454;28;20188;-72
2022/12/04 11:20:03;;;;;;;30.50;15.40;;;;;;;3.94;100.00;100197.03;5009332;28;20200;-75
2022/12/04 11:22:31;;;;;;;30.10;16.35;;;;;;;3.94;100.00;100199.69;5003119;28;20199;-74
2022/12/04 11:24:59;;;;;;;26.15;14.82;;;;;;;3.95;100.00;100189.91;5000661;28;20195;-73
2022/12/04 11:27:31;;;;;;;26.45;15.60;;;;;;;3.97;100.00;100182.75;4997397;28;20213;-75
2022/12/04 11:30:00;;;;;;;27.80;14.95;;;;;;;3.96;100.00;100186.34;5005056;28;20303;-73